Time;durP1;ratioP1;P1;durP2;ratioP2;P2;SDS_P1;SDS_P2;PMS_P1;PMS_P2;Temp;Humidity;BMP_temperature;BMP_pressure;BME280_temperature;BME280_humidity;BME280_pressure;Samples;Min_cycle;Max_cycle;Signal;HPM_P1;HPM_P2
2022/03/14 00:00:06;;;;;;;10.37;7.20;;;;;;;;;;6203217;23;20388;-52
2022/03/14 00:02:32;;;;;;;10.97;7.57;;;;;;;;;;6199345;23;20379;-53
2022/03/14 00:04:58;;;;;;;10.80;7.00;;;;;;;;;;6203210;23;20368;-53
2022/03/14 00:07:24;;;;;;;10.97;7.30;;;;;;;;;;6202696;23;20438;-52
2022/03/14 00:09:50;;;;;;;11.70;7.10;;;;;;;;;;6201412;23;20574;-52
2022/03/14 00:12:23;;;;;;;14.27;7.90;;;;;;;;;;6200672;23;20382;-52
2022/03/14 00:14:53;;;;;;;9.97;6.73;;;;;;;;;;6202302;23;20379;-52
2022/03/14 00:17:19;;;;;;;12.13;7.53;;;;;;;;;;6202172;23;20478;-52
2022/03/14 00:19:46;;;;;;;11.53;7.53;;;;;;;;;;6202185;23;20434;-53
2022/03/14 00:22:13;;;;;;;10.53;7.47;;;;;;;;;;6201167;23;20383;-53
2022/03/14 00:24:39;;;;;;;15.20;7.13;;;;;;;;;;6202458;23;20437;-52
2022/03/14 00:27:06;;;;;;;11.07;7.73;;;;;;;;;;6200461;23;20913;-52
2022/03/14 00:29:33;;;;;;;10.10;7.73;;;;;;;;;;6201861;23;20368;-53
2022/03/14 00:32:00;;;;;;;12.17;8.93;;;;;;;;;;6202947;23;20372;-52
2022/03/14 00:34:27;;;;;;;11.00;7.20;;;;;;;;;;6203564;23;20854;-53
2022/03/14 00:36:53;;;;;;;14.00;7.60;;;;;;;;;;6201276;23;20367;-52
2022/03/14 00:39:19;;;;;;;11.57;7.83;;;;;;;;;;6201747;23;20442;-53
2022/03/14 00:41:45;;;;;;;11.37;7.17;;;;;;;;;;6202075;23;20154;-52
2022/03/14 00:44:15;;;;;;;11.90;7.83;;;;;;;;;;6202282;23;20380;-53
2022/03/14 00:46:42;;;;;;;12.57;7.87;;;;;;;;;;6200798;23;20359;-52
2022/03/14 00:49:08;;;;;;;12.20;7.33;;;;;;;;;;6202026;23;20383;-53
2022/03/14 00:51:35;;;;;;;11.03;7.70;;;;;;;;;;6200502;23;20450;-53
2022/03/14 00:54:01;;;;;;;9.90;7.20;;;;;;;;;;6201753;23;20430;-51
2022/03/14 00:56:28;;;;;;;10.03;7.23;;;;;;;;;;6200944;23;20376;-52
2022/03/14 00:58:54;;;;;;;12.83;7.90;;;;;;;;;;6200985;23;20423;-52
2022/03/14 01:01:21;;;;;;;11.13;7.20;;;;;;;;;;6202629;23;20577;-53
2022/03/14 01:03:47;;;;;;;13.50;7.47;;;;;;;;;;6200434;23;20796;-53
2022/03/14 01:06:12;;;;;;;15.93;9.23;;;;;;;;;;6201576;23;20379;-52
2022/03/14 01:08:38;;;;;;;14.83;8.80;;;;;;;;;;6203171;23;20153;-53
2022/03/14 01:11:04;;;;;;;16.97;8.90;;;;;;;;;;6203029;23;20367;-53
2022/03/14 01:13:30;;;;;;;15.33;10.33;;;;;;;;;;6200607;23;20151;-53
2022/03/14 01:15:57;;;;;;;14.40;9.83;;;;;;;;;;6202156;23;20379;-55
2022/03/14 01:18:23;;;;;;;19.40;10.73;;;;;;;;;;6202478;23;20430;-52
2022/03/14 01:20:49;;;;;;;16.10;11.03;;;;;;;;;;6202823;23;20940;-53
2022/03/14 01:23:15;;;;;;;19.17;11.40;;;;;;;;;;6202524;23;20895;-53
2022/03/14 01:25:42;;;;;;;20.30;12.10;;;;;;;;;;6204334;23;20451;-52
2022/03/14 01:28:08;;;;;;;28.23;12.83;;;;;;;;;;6202324;23;20522;-58
2022/03/14 01:30:35;;;;;;;16.37;11.83;;;;;;;;;;6202412;23;20791;-55
2022/03/14 01:33:01;;;;;;;17.83;11.70;;;;;;;;;;6201798;23;20470;-53
2022/03/14 01:35:27;;;;;;;19.67;11.00;;;;;;;;;;6202100;23;20462;-52
2022/03/14 01:37:55;;;;;;;17.17;11.70;;;;;;;;;;6203018;23;20379;-51
2022/03/14 01:40:21;;;;;;;14.93;11.27;;;;;;;;;;6203477;23;20914;-53
2022/03/14 01:42:48;;;;;;;19.03;12.90;;;;;;;;;;6202046;23;20407;-52
2022/03/14 01:45:14;;;;;;;13.30;10.67;;;;;;;;;;6202055;23;20859;-51
2022/03/14 01:47:41;;;;;;;16.60;11.93;;;;;;;;;;6201653;23;21212;-51
2022/03/14 01:50:08;;;;;;;16.47;11.13;;;;;;;;;;6201974;23;20410;-52
2022/03/14 01:52:34;;;;;;;13.80;10.80;;;;;;;;;;6202498;23;20372;-52
2022/03/14 01:55:00;;;;;;;14.57;11.73;;;;;;;;;;6202199;23;20700;-55
2022/03/14 01:57:26;;;;;;;16.90;12.40;;;;;;;;;;6200931;23;20371;-52
2022/03/14 01:59:51;;;;;;;14.67;10.33;;;;;;;;;;6199240;23;21260;-52
2022/03/14 02:02:17;;;;;;;15.70;11.47;;;;;;;;;;6200910;23;20761;-53
2022/03/14 02:04:43;;;;;;;15.93;10.77;;;;;;;;;;6199545;23;20663;-53
2022/03/14 02:07:09;;;;;;;18.87;11.70;;;;;;;;;;6200571;23;20909;-52
2022/03/14 02:09:36;;;;;;;18.30;12.33;;;;;;;;;;6200185;23;20148;-53
2022/03/14 02:12:02;;;;;;;13.97;10.70;;;;;;;;;;6200787;23;20433;-52
2022/03/14 02:14:28;;;;;;;17.60;11.40;;;;;;;;;;6201307;23;20450;-53
2022/03/14 02:16:54;;;;;;;15.70;11.00;;;;;;;;;;6201577;23;20398;-53
2022/03/14 02:19:20;;;;;;;18.30;11.93;;;;;;;;;;6201040;23;20435;-53
2022/03/14 02:21:46;;;;;;;15.40;12.07;;;;;;;;;;6201435;23;20426;-53
2022/03/14 02:24:12;;;;;;;16.17;11.10;;;;;;;;;;6201058;23;20379;-52
2022/03/14 02:26:39;;;;;;;19.23;11.73;;;;;;;;;;6200515;23;20478;-52
2022/03/14 02:29:05;;;;;;;21.73;12.57;;;;;;;;;;6199318;23;20372;-53
2022/03/14 02:31:31;;;;;;;18.47;11.80;;;;;;;;;;6201396;23;20414;-52
2022/03/14 02:33:57;;;;;;;18.93;12.00;;;;;;;;;;6202286;23;20462;-52
2022/03/14 02:36:23;;;;;;;18.37;13.10;;;;;;;;;;6202561;23;20411;-53
2022/03/14 02:38:49;;;;;;;21.27;11.53;;;;;;;;;;6202193;23;20437;-53
2022/03/14 02:41:14;;;;;;;20.83;11.60;;;;;;;;;;6203002;23;20437;-53
2022/03/14 02:43:40;;;;;;;15.57;11.53;;;;;;;;;;6202303;23;20998;-52
2022/03/14 02:46:07;;;;;;;18.90;11.90;;;;;;;;;;6201423;23;20401;-53
2022/03/14 02:48:36;;;;;;;16.53;11.50;;;;;;;;;;6202630;23;20422;-53
2022/03/14 02:51:02;;;;;;;15.40;11.37;;;;;;;;;;6202953;23;20387;-53
2022/03/14 02:53:28;;;;;;;17.50;10.90;;;;;;;;;;6202447;23;20384;-53
2022/03/14 02:55:54;;;;;;;18.10;11.50;;;;;;;;;;6202337;23;20410;-53
2022/03/14 02:58:20;;;;;;;12.43;8.80;;;;;;;;;;6200534;23;20463;-52
2022/03/14 03:00:46;;;;;;;14.97;9.83;;;;;;;;;;6200389;23;20422;-52
2022/03/14 03:03:12;;;;;;;12.90;7.47;;;;;;;;;;6202816;23;20367;-52
2022/03/14 03:05:43;;;;;;;12.23;9.10;;;;;;;;;;6203450;23;20318;-52
2022/03/14 03:08:09;;;;;;;13.20;8.07;;;;;;;;;;6203569;23;20770;-52
2022/03/14 03:10:35;;;;;;;15.10;8.50;;;;;;;;;;6203821;23;20491;-52
2022/03/14 03:13:01;;;;;;;11.60;7.70;;;;;;;;;;6203313;23;20375;-54
2022/03/14 03:15:27;;;;;;;12.53;8.83;;;;;;;;;;6202805;23;21225;-52
2022/03/14 03:17:53;;;;;;;13.10;8.13;;;;;;;;;;6203225;23;20395;-52
2022/03/14 03:20:19;;;;;;;10.60;8.37;;;;;;;;;;6205093;23;20396;-51
2022/03/14 03:22:45;;;;;;;10.00;7.07;;;;;;;;;;6205490;23;20818;-52
2022/03/14 03:25:11;;;;;;;10.43;6.00;;;;;;;;;;6204732;23;20383;-51
2022/03/14 03:27:37;;;;;;;10.97;7.23;;;;;;;;;;6205082;23;20382;-51
2022/03/14 03:30:04;;;;;;;13.97;8.77;;;;;;;;;;6203498;23;20730;-52
2022/03/14 03:32:30;;;;;;;11.30;8.77;;;;;;;;;;6206631;23;20401;-53
2022/03/14 03:34:56;;;;;;;11.27;8.43;;;;;;;;;;6209282;23;20415;-53
2022/03/14 03:37:22;;;;;;;8.43;7.47;;;;;;;;;;6207996;23;20376;-52
2022/03/14 03:39:48;;;;;;;11.83;9.20;;;;;;;;;;6208029;23;20825;-52
2022/03/14 03:42:14;;;;;;;10.70;6.03;;;;;;;;;;6205968;23;20376;-51
2022/03/14 03:44:39;;;;;;;12.83;6.97;;;;;;;;;;6204878;23;20386;-52
2022/03/14 03:47:06;;;;;;;9.33;6.17;;;;;;;;;;6204720;23;20163;-51
2022/03/14 03:49:32;;;;;;;16.73;8.00;;;;;;;;;;6205502;23;20402;-52
2022/03/14 03:51:58;;;;;;;7.73;6.63;;;;;;;;;;6205183;23;20935;-52
2022/03/14 03:54:24;;;;;;;9.57;6.67;;;;;;;;;;6206228;23;20406;-51
2022/03/14 03:56:50;;;;;;;11.90;7.97;;;;;;;;;;6204040;23;20462;-51
2022/03/14 03:59:16;;;;;;;9.13;5.50;;;;;;;;;;6202417;23;20431;-50
2022/03/14 04:01:46;;;;;;;6.93;4.73;;;;;;;;;;6203385;23;20368;-52
2022/03/14 04:04:12;;;;;;;12.50;8.63;;;;;;;;;;6203379;23;20375;-51
2022/03/14 04:06:41;;;;;;;9.27;7.20;;;;;;;;;;6203379;23;20431;-51
2022/03/14 04:09:07;;;;;;;10.20;8.07;;;;;;;;;;6202173;23;20375;-52
2022/03/14 04:11:41;;;;;;;15.67;8.23;;;;;;;;;;6202910;23;20372;-52
2022/03/14 04:14:09;;;;;;;13.40;8.70;;;;;;;;;;6200990;23;20470;-51
2022/03/14 04:16:37;;;;;;;11.80;8.50;;;;;;;;;;6201721;23;20541;-51
2022/03/14 04:19:03;;;;;;;15.80;10.50;;;;;;;;;;6204172;23;20430;-51
2022/03/14 04:21:30;;;;;;;21.60;10.53;;;;;;;;;;6202450;23;20441;-52
2022/03/14 04:23:56;;;;;;;13.97;9.97;;;;;;;;;;6203315;23;20873;-51
2022/03/14 04:26:22;;;;;;;14.30;8.73;;;;;;;;;;6202811;23;20367;-52
2022/03/14 04:28:50;;;;;;;12.30;7.27;;;;;;;;;;6202225;23;20409;-53
2022/03/14 04:31:16;;;;;;;11.93;8.57;;;;;;;;;;6201566;23;20370;-51
2022/03/14 04:33:42;;;;;;;14.50;8.03;;;;;;;;;;6202671;23;20379;-52
2022/03/14 04:36:08;;;;;;;11.53;7.00;;;;;;;;;;6202692;23;20371;-51
2022/03/14 04:38:34;;;;;;;11.20;7.80;;;;;;;;;;6201956;23;20442;-52
2022/03/14 04:41:00;;;;;;;9.40;7.80;;;;;;;;;;6203802;23;20560;-51
2022/03/14 04:43:26;;;;;;;8.60;7.13;;;;;;;;;;6200888;23;20476;-52
2022/03/14 04:45:52;;;;;;;10.83;6.83;;;;;;;;;;6202445;23;20448;-51
2022/03/14 04:48:18;;;;;;;10.50;6.50;;;;;;;;;;6199153;23;20388;-51
2022/03/14 04:50:44;;;;;;;11.60;6.83;;;;;;;;;;6201748;23;20719;-51
2022/03/14 04:53:10;;;;;;;11.30;7.10;;;;;;;;;;6202353;23;20650;-54
2022/03/14 04:55:36;;;;;;;8.33;6.30;;;;;;;;;;6202157;23;20430;-50
2022/03/14 04:58:06;;;;;;;12.63;7.17;;;;;;;;;;6202924;23;20380;-51
2022/03/14 05:00:32;;;;;;;6.83;5.70;;;;;;;;;;6202198;23;20384;-51
2022/03/14 05:03:02;;;;;;;5.50;4.40;;;;;;;;;;6201872;23;20467;-51
2022/03/14 05:05:29;;;;;;;6.00;4.50;;;;;;;;;;6202320;23;20445;-51
2022/03/14 05:07:54;;;;;;;8.73;4.30;;;;;;;;;;6202109;23;20383;-52
2022/03/14 05:10:21;;;;;;;3.70;2.93;;;;;;;;;;6203490;23;20379;-50
2022/03/14 05:12:47;;;;;;;3.90;2.10;;;;;;;;;;6200429;23;20372;-51
2022/03/14 05:15:15;;;;;;;3.30;2.50;;;;;;;;;;6201281;23;20379;-51
2022/03/14 05:17:41;;;;;;;1.90;1.30;;;;;;;;;;6200035;23;20383;-52
2022/03/14 05:20:08;;;;;;;2.13;1.50;;;;;;;;;;6201330;23;21000;-51
2022/03/14 05:22:35;;;;;;;2.13;1.33;;;;;;;;;;6199943;23;20379;-52
2022/03/14 05:25:01;;;;;;;1.10;1.00;;;;;;;;;;6200934;23;20379;-53
2022/03/14 05:27:28;;;;;;;2.10;1.40;;;;;;;;;;6200730;23;20437;-52
2022/03/14 05:29:54;;;;;;;3.70;1.90;;;;;;;;;;6202200;23;20376;-54
2022/03/14 05:32:20;;;;;;;1.33;1.00;;;;;;;;;;6199215;23;20376;-53
2022/03/14 05:34:46;;;;;;;1.53;0.97;;;;;;;;;;6198091;23;20403;-52
2022/03/14 05:37:13;;;;;;;1.50;0.90;;;;;;;;;;6199148;23;20372;-54
2022/03/14 05:39:39;;;;;;;1.40;1.10;;;;;;;;;;6200785;23;20427;-53
2022/03/14 05:42:06;;;;;;;1.20;0.90;;;;;;;;;;6200224;23;20379;-53
2022/03/14 05:44:32;;;;;;;1.10;0.80;;;;;;;;;;6196960;23;20372;-54
2022/03/14 05:46:58;;;;;;;2.03;0.90;;;;;;;;;;6199761;23;20465;-52
2022/03/14 05:49:23;;;;;;;2.00;1.50;;;;;;;;;;6200863;23;20379;-54
2022/03/14 05:51:50;;;;;;;1.70;1.60;;;;;;;;;;6198359;23;20379;-54
2022/03/14 05:54:16;;;;;;;2.40;1.40;;;;;;;;;;6199281;23;20375;-54
2022/03/14 05:56:43;;;;;;;2.77;1.17;;;;;;;;;;6202128;23;20429;-54
2022/03/14 05:59:10;;;;;;;2.00;1.10;;;;;;;;;;6200439;23;20508;-54
2022/03/14 06:01:38;;;;;;;1.87;0.90;;;;;;;;;;6196237;23;20643;-54
2022/03/14 06:04:04;;;;;;;1.30;1.10;;;;;;;;;;6199885;23;20386;-53
2022/03/14 06:06:30;;;;;;;1.40;0.90;;;;;;;;;;6199574;23;20470;-53
2022/03/14 06:08:56;;;;;;;1.30;1.10;;;;;;;;;;6200715;23;20380;-55
2022/03/14 06:11:23;;;;;;;1.40;0.87;;;;;;;;;;6201275;23;20925;-54
2022/03/14 06:13:49;;;;;;;1.30;0.90;;;;;;;;;;6201482;23;20418;-54
2022/03/14 06:16:15;;;;;;;2.40;1.07;;;;;;;;;;6200324;23;20399;-55
2022/03/14 06:18:42;;;;;;;3.20;1.30;;;;;;;;;;6201615;23;20427;-54
2022/03/14 06:21:08;;;;;;;3.50;2.10;;;;;;;;;;6202153;23;20373;-52
2022/03/14 06:23:34;;;;;;;1.77;0.97;;;;;;;;;;6199962;23;20391;-55
2022/03/14 06:26:00;;;;;;;1.83;1.03;;;;;;;;;;6198057;23;20450;-53
2022/03/14 06:28:26;;;;;;;2.83;1.27;;;;;;;;;;6200424;23;20414;-53
2022/03/14 06:30:52;;;;;;;2.07;1.30;;;;;;;;;;6199100;23;20685;-52
2022/03/14 06:33:18;;;;;;;2.30;1.10;;;;;;;;;;6200404;23;20382;-54
2022/03/14 06:35:44;;;;;;;1.67;1.10;;;;;;;;;;6199952;23;20235;-54
2022/03/14 06:38:11;;;;;;;2.20;1.43;;;;;;;;;;6199448;23;20739;-53
2022/03/14 06:40:37;;;;;;;2.73;1.10;;;;;;;;;;6200823;23;20429;-53
2022/03/14 06:43:03;;;;;;;3.00;1.40;;;;;;;;;;6198584;23;20398;-54
2022/03/14 06:45:30;;;;;;;2.90;1.33;;;;;;;;;;6197202;23;20386;-54
2022/03/14 06:47:57;;;;;;;1.73;0.90;;;;;;;;;;6191258;23;20465;-53
2022/03/14 06:50:23;;;;;;;1.83;0.90;;;;;;;;;;6196775;23;20359;-54
2022/03/14 06:52:49;;;;;;;2.13;1.17;;;;;;;;;;6188152;23;20684;-53
2022/03/14 06:55:16;;;;;;;3.03;1.20;;;;;;;;;;6196448;23;20375;-53
2022/03/14 06:57:42;;;;;;;1.70;1.20;;;;;;;;;;6195896;23;20693;-54
2022/03/14 07:00:08;;;;;;;2.53;1.00;;;;;;;;;;6201837;23;20968;-54
2022/03/14 07:02:35;;;;;;;2.53;1.57;;;;;;;;;;6198918;23;20696;-55
2022/03/14 07:05:01;;;;;;;2.33;1.10;;;;;;;;;;6201619;23;20380;-53
2022/03/14 07:07:27;;;;;;;1.50;1.07;;;;;;;;;;6197316;23;20399;-54
2022/03/14 07:09:54;;;;;;;3.17;1.87;;;;;;;;;;6199452;23;20371;-54
2022/03/14 07:12:20;;;;;;;2.90;1.10;;;;;;;;;;6198640;23;20382;-56
2022/03/14 07:14:46;;;;;;;1.37;0.90;;;;;;;;;;6198120;23;20414;-53
2022/03/14 07:17:12;;;;;;;1.23;0.90;;;;;;;;;;6201308;23;21178;-53
2022/03/14 07:19:45;;;;;;;1.90;1.00;;;;;;;;;;6204094;23;20455;-54
2022/03/14 07:22:17;;;;;;;6.37;1.80;;;;;;;;;;6203194;23;20406;-53
2022/03/14 07:24:43;;;;;;;1.70;1.20;;;;;;;;;;6203448;23;20375;-55
2022/03/14 07:27:10;;;;;;;3.00;1.03;;;;;;;;;;6203775;23;20371;-54
2022/03/14 07:29:36;;;;;;;3.97;1.10;;;;;;;;;;6202100;23;20383;-55
2022/03/14 07:32:02;;;;;;;2.37;1.10;;;;;;;;;;6202589;23;20438;-53
2022/03/14 07:34:31;;;;;;;2.87;1.17;;;;;;;;;;6203554;23;20498;-56
2022/03/14 07:36:57;;;;;;;2.37;0.97;;;;;;;;;;6202020;23;20407;-55
2022/03/14 07:39:23;;;;;;;3.47;1.27;;;;;;;;;;6202368;23;20435;-53
2022/03/14 07:41:48;;;;;;;2.17;1.93;;;;;;;;;;6201181;23;20379;-55
2022/03/14 07:44:14;;;;;;;2.80;1.00;;;;;;;;;;6200948;23;20399;-55
2022/03/14 07:46:40;;;;;;;1.97;0.90;;;;;;;;;;6202928;23;20144;-56
2022/03/14 07:49:08;;;;;;;2.40;1.00;;;;;;;;;;6201551;23;20391;-54
2022/03/14 07:51:33;;;;;;;4.20;1.30;;;;;;;;;;6201828;23;20387;-53
2022/03/14 07:53:59;;;;;;;2.87;1.33;;;;;;;;;;6202867;23;20760;-56
2022/03/14 07:56:25;;;;;;;4.60;1.67;;;;;;;;;;6202011;23;21312;-58
2022/03/14 07:58:51;;;;;;;1.10;0.70;;;;;;;;;;6200450;23;20427;-55
2022/03/14 08:01:17;;;;;;;1.43;1.33;;;;;;;;;;6198746;23;21049;-55
2022/03/14 08:03:45;;;;;;;1.40;0.97;;;;;;;;;;6199419;23;20839;-55
2022/03/14 08:06:18;;;;;;;1.70;1.00;;;;;;;;;;6188296;23;20417;-53
2022/03/14 08:08:43;;;;;;;4.20;1.30;;;;;;;;;;6194703;23;20410;-54
2022/03/14 08:11:12;;;;;;;1.60;0.83;;;;;;;;;;6194258;23;21337;-54
2022/03/14 08:13:38;;;;;;;1.90;1.17;;;;;;;;;;6193441;23;20379;-53
2022/03/14 08:16:04;;;;;;;2.13;0.90;;;;;;;;;;6196947;23;20858;-54
2022/03/14 08:18:30;;;;;;;1.10;0.70;;;;;;;;;;6195508;23;20539;-55
2022/03/14 08:20:57;;;;;;;1.53;0.97;;;;;;;;;;6193329;23;20430;-54
2022/03/14 08:23:24;;;;;;;3.53;1.20;;;;;;;;;;6196371;23;20411;-58
2022/03/14 08:25:50;;;;;;;1.10;0.70;;;;;;;;;;6194489;23;21181;-54
2022/03/14 08:28:16;;;;;;;1.63;0.70;;;;;;;;;;6193489;23;20395;-54
2022/03/14 08:30:44;;;;;;;3.40;1.10;;;;;;;;;;6191852;23;20380;-55
2022/03/14 08:33:10;;;;;;;10.07;3.60;;;;;;;;;;6194102;23;20380;-54
2022/03/14 08:35:36;;;;;;;1.93;0.80;;;;;;;;;;6194717;23;20941;-55
2022/03/14 08:38:02;;;;;;;3.57;1.20;;;;;;;;;;6197465;23;20152;-55
2022/03/14 08:40:28;;;;;;;5.53;1.20;;;;;;;;;;6197131;23;20398;-55
2022/03/14 08:42:55;;;;;;;2.57;0.83;;;;;;;;;;6194483;23;20411;-55
2022/03/14 08:45:22;;;;;;;2.57;1.13;;;;;;;;;;6195665;23;20376;-55
2022/03/14 08:47:48;;;;;;;2.03;1.00;;;;;;;;;;6197089;23;20395;-55
2022/03/14 08:50:14;;;;;;;5.13;0.90;;;;;;;;;;6197094;23;21182;-55
2022/03/14 08:52:40;;;;;;;1.70;0.80;;;;;;;;;;6195235;23;20386;-55
2022/03/14 08:55:07;;;;;;;2.10;0.80;;;;;;;;;;6196302;23;20470;-55
2022/03/14 08:57:33;;;;;;;4.33;1.83;;;;;;;;;;6192653;23;20958;-55
2022/03/14 08:59:59;;;;;;;1.47;1.07;;;;;;;;;;6194712;23;20996;-55
2022/03/14 09:02:26;;;;;;;2.90;1.07;;;;;;;;;;6195774;23;20364;-55
2022/03/14 09:04:52;;;;;;;2.57;1.40;;;;;;;;;;6196819;23;20449;-55
2022/03/14 09:07:25;;;;;;;7.63;1.50;;;;;;;;;;6194694;23;20446;-55
2022/03/14 09:09:51;;;;;;;4.27;1.50;;;;;;;;;;6195241;23;20238;-56
2022/03/14 09:12:19;;;;;;;4.30;1.20;;;;;;;;;;6194405;23;20368;-55
2022/03/14 09:14:46;;;;;;;2.60;1.47;;;;;;;;;;6195268;23;20454;-55
2022/03/14 09:17:12;;;;;;;5.70;1.00;;;;;;;;;;6195078;23;20387;-55
2022/03/14 09:19:40;;;;;;;2.60;1.10;;;;;;;;;;6195166;23;20430;-54
2022/03/14 09:22:08;;;;;;;5.90;1.43;;;;;;;;;;6195048;23;20368;-55
2022/03/14 09:24:36;;;;;;;7.63;1.40;;;;;;;;;;6195107;23;20391;-55
2022/03/14 09:27:02;;;;;;;2.10;1.30;;;;;;;;;;6194673;23;20363;-60
2022/03/14 09:29:28;;;;;;;1.63;1.23;;;;;;;;;;6196367;23;20847;-55
2022/03/14 09:31:55;;;;;;;3.87;1.00;;;;;;;;;;6196729;23;20370;-55
2022/03/14 09:34:21;;;;;;;3.97;1.40;;;;;;;;;;6197174;23;20454;-55
2022/03/14 09:36:48;;;;;;;5.60;1.20;;;;;;;;;;6196958;23;20374;-55
2022/03/14 09:39:14;;;;;;;2.10;0.90;;;;;;;;;;6195548;23;20477;-55
2022/03/14 09:41:41;;;;;;;5.60;1.20;;;;;;;;;;6194884;23;20383;-55
2022/03/14 09:44:09;;;;;;;4.93;1.13;;;;;;;;;;6192435;23;20906;-55
2022/03/14 09:46:35;;;;;;;1.57;0.90;;;;;;;;;;6191685;23;20372;-54
2022/03/14 09:49:01;;;;;;;1.87;1.20;;;;;;;;;;6194619;23;20387;-55
2022/03/14 09:51:27;;;;;;;11.63;1.33;;;;;;;;;;6194161;23;21187;-55
2022/03/14 09:53:53;;;;;;;4.17;1.20;;;;;;;;;;6193337;23;20394;-54
2022/03/14 09:56:19;;;;;;;4.00;1.70;;;;;;;;;;6197070;23;20379;-53
2022/03/14 09:58:45;;;;;;;1.83;1.10;;;;;;;;;;6192762;23;20879;-54
2022/03/14 10:01:12;;;;;;;3.57;1.13;;;;;;;;;;6191910;23;20371;-55
2022/03/14 10:03:38;;;;;;;5.30;1.30;;;;;;;;;;6191127;23;20752;-54
2022/03/14 10:06:04;;;;;;;1.90;0.90;;;;;;;;;;6195207;23;20371;-54
2022/03/14 10:08:29;;;;;;;8.33;1.57;;;;;;;;;;6195534;23;20391;-55
2022/03/14 10:10:56;;;;;;;1.77;1.00;;;;;;;;;;6191930;23;20383;-55
2022/03/14 10:13:21;;;;;;;4.30;1.10;;;;;;;;;;6192781;23;20160;-56
2022/03/14 10:15:48;;;;;;;3.50;1.33;;;;;;;;;;6192048;23;20710;-56
2022/03/14 10:18:15;;;;;;;4.20;1.30;;;;;;;;;;6193864;23;21052;-55
2022/03/14 10:21:05;;;;;;;5.37;1.00;;;;;;;;;;6194495;23;20415;-54
2022/03/14 10:23:39;;;;;;;2.47;1.00;;;;;;;;;;6195873;23;20383;-56
2022/03/14 10:26:08;;;;;;;2.90;1.40;;;;;;;;;;6195585;23;20410;-56
2022/03/14 10:28:38;;;;;;;1.60;1.10;;;;;;;;;;6195125;23;20370;-55
2022/03/14 10:31:04;;;;;;;3.27;1.13;;;;;;;;;;6196856;23;20375;-54
2022/03/14 10:33:31;;;;;;;2.43;1.00;;;;;;;;;;6192785;23;20372;-55
2022/03/14 10:35:57;;;;;;;3.37;1.13;;;;;;;;;;6193736;23;20497;-55
2022/03/14 10:38:25;;;;;;;5.23;1.40;;;;;;;;;;6195175;23;20492;-54
2022/03/14 10:40:51;;;;;;;1.83;0.90;;;;;;;;;;6194471;23;21147;-60
2022/03/14 10:43:27;;;;;;;3.20;1.27;;;;;;;;;;6193378;23;20968;-55
2022/03/14 10:45:54;;;;;;;3.87;1.13;;;;;;;;;;6195577;23;20430;-55
2022/03/14 10:48:32;;;;;;;4.60;1.27;;;;;;;;;;6195201;23;20382;-54
2022/03/14 10:51:01;;;;;;;1.50;1.07;;;;;;;;;;6192267;23;20396;-55
2022/03/14 10:53:28;;;;;;;2.90;1.00;;;;;;;;;;6192252;23;20378;-54
2022/03/14 10:55:57;;;;;;;2.07;0.93;;;;;;;;;;6193364;23;20503;-55
2022/03/14 10:58:27;;;;;;;2.50;1.00;;;;;;;;;;6191475;23;20723;-53
2022/03/14 11:00:54;;;;;;;3.10;0.97;;;;;;;;;;6193296;23;20380;-54
2022/03/14 11:03:23;;;;;;;3.20;1.30;;;;;;;;;;6195082;23;20371;-54
2022/03/14 11:05:50;;;;;;;3.77;0.80;;;;;;;;;;6196120;23;20853;-54
2022/03/14 11:08:34;;;;;;;2.80;0.87;;;;;;;;;;6195983;23;20771;-54
2022/03/14 11:11:02;;;;;;;4.30;0.90;;;;;;;;;;6197233;23;20410;-55
2022/03/14 11:13:28;;;;;;;2.47;0.83;;;;;;;;;;6196389;23;20360;-54
2022/03/14 11:15:56;;;;;;;2.70;0.83;;;;;;;;;;6197963;23;20406;-54
2022/03/14 11:18:22;;;;;;;2.00;0.80;;;;;;;;;;6197892;23;20475;-56
2022/03/14 11:20:48;;;;;;;1.67;0.93;;;;;;;;;;6197069;23;20382;-54
2022/03/14 11:23:14;;;;;;;1.30;0.80;;;;;;;;;;6198177;23;20419;-54
2022/03/14 11:25:43;;;;;;;2.80;1.50;;;;;;;;;;6198265;23;20395;-56
2022/03/14 11:28:09;;;;;;;2.27;1.10;;;;;;;;;;6196475;23;20367;-55
2022/03/14 11:30:35;;;;;;;1.90;1.13;;;;;;;;;;6196734;23;20402;-54
2022/03/14 11:33:04;;;;;;;1.57;1.13;;;;;;;;;;6197342;23;20179;-55
2022/03/14 11:35:30;;;;;;;2.63;1.10;;;;;;;;;;6198335;23;20639;-55
2022/03/14 11:37:56;;;;;;;4.10;0.90;;;;;;;;;;6197797;23;20394;-54
2022/03/14 11:40:22;;;;;;;3.23;1.37;;;;;;;;;;6195899;23;21188;-55
2022/03/14 11:42:49;;;;;;;3.63;0.90;;;;;;;;;;6197603;23;20378;-54
2022/03/14 11:45:15;;;;;;;2.53;1.30;;;;;;;;;;6194560;23;20368;-54
2022/03/14 11:47:41;;;;;;;4.17;1.20;;;;;;;;;;6197561;23;20467;-55
2022/03/14 11:50:07;;;;;;;4.77;1.30;;;;;;;;;;6194147;23;20429;-54
2022/03/14 11:52:37;;;;;;;2.30;1.03;;;;;;;;;;6192105;23;20441;-55
2022/03/14 11:55:04;;;;;;;5.53;1.10;;;;;;;;;;6194544;23;20969;-54
2022/03/14 11:57:34;;;;;;;2.13;1.23;;;;;;;;;;6194675;23;20429;-55
2022/03/14 12:00:20;;;;;;;1.83;1.00;;;;;;;;;;6194997;23;20439;-54
2022/03/14 12:02:46;;;;;;;2.13;0.93;;;;;;;;;;6195469;23;20375;-54
2022/03/14 12:05:12;;;;;;;2.70;0.93;;;;;;;;;;6192511;23;20367;-54
2022/03/14 12:07:39;;;;;;;2.63;0.90;;;;;;;;;;6188204;23;20380;-54
2022/03/14 12:10:24;;;;;;;4.10;1.23;;;;;;;;;;6192819;23;20426;-54
2022/03/14 12:12:53;;;;;;;3.70;1.07;;;;;;;;;;6190648;23;20383;-54
2022/03/14 12:15:41;;;;;;;1.77;1.00;;;;;;;;;;6192754;23;20454;-54
2022/03/14 12:18:29;;;;;;;2.13;0.77;;;;;;;;;;6194407;23;20462;-53
2022/03/14 12:20:55;;;;;;;2.40;0.90;;;;;;;;;;6190788;23;20398;-54
2022/03/14 12:23:25;;;;;;;3.47;1.07;;;;;;;;;;6194934;23;20371;-55
2022/03/14 12:25:51;;;;;;;2.17;0.90;;;;;;;;;;6195366;23;20467;-54
2022/03/14 12:28:26;;;;;;;2.00;0.97;;;;;;;;;;6194175;23;20395;-54
2022/03/14 12:30:56;;;;;;;2.90;1.37;;;;;;;;;;6193947;23;20370;-54
2022/03/14 12:33:32;;;;;;;2.20;0.90;;;;;;;;;;6194954;23;20494;-54
2022/03/14 12:36:01;;;;;;;1.83;0.90;;;;;;;;;;6194115;23;20436;-54
2022/03/14 12:38:27;;;;;;;2.07;1.00;;;;;;;;;;6195207;23;20509;-55
2022/03/14 12:40:56;;;;;;;3.23;0.80;;;;;;;;;;6186860;23;21218;-53
2022/03/14 12:43:27;;;;;;;3.40;1.53;;;;;;;;;;6193526;23;20280;-54
2022/03/14 12:45:54;;;;;;;1.87;0.80;;;;;;;;;;6195070;23;20435;-55
2022/03/14 12:48:27;;;;;;;2.70;0.90;;;;;;;;;;6195776;23;20384;-54
2022/03/14 12:50:57;;;;;;;3.10;1.20;;;;;;;;;;6195359;23;20914;-54
2022/03/14 12:53:27;;;;;;;3.93;0.97;;;;;;;;;;6190272;23;20387;-53
2022/03/14 12:55:54;;;;;;;2.30;0.90;;;;;;;;;;6191425;23;20906;-53
2022/03/14 12:58:30;;;;;;;1.67;0.80;;;;;;;;;;6191995;23;20403;-54
2022/03/14 13:01:03;;;;;;;2.43;0.80;;;;;;;;;;6194528;23;20430;-54
2022/03/14 13:03:29;;;;;;;2.80;1.00;;;;;;;;;;6195835;23;21030;-54
2022/03/14 13:05:55;;;;;;;1.37;0.73;;;;;;;;;;6197421;23;20877;-54
2022/03/14 13:08:21;;;;;;;2.47;1.20;;;;;;;;;;6195182;23;20176;-54
2022/03/14 13:10:47;;;;;;;4.00;1.40;;;;;;;;;;6195608;23;20375;-54
2022/03/14 13:13:14;;;;;;;2.60;0.80;;;;;;;;;;6194634;23;20376;-55
2022/03/14 13:15:40;;;;;;;4.07;1.20;;;;;;;;;;6192235;23;20414;-54
2022/03/14 13:18:17;;;;;;;2.37;0.90;;;;;;;;;;6195375;23;20421;-53
2022/03/14 13:20:43;;;;;;;1.97;0.80;;;;;;;;;;6194790;23;20431;-54
2022/03/14 13:23:16;;;;;;;3.53;1.20;;;;;;;;;;6195420;23;20937;-54
2022/03/14 13:25:49;;;;;;;2.60;0.80;;;;;;;;;;6196243;23;20447;-54
2022/03/14 13:28:25;;;;;;;2.53;0.60;;;;;;;;;;6194034;23;20419;-54
2022/03/14 13:30:52;;;;;;;1.80;0.90;;;;;;;;;;6194873;23;20383;-53
2022/03/14 13:33:18;;;;;;;3.13;1.10;;;;;;;;;;6194268;23;20375;-54
2022/03/14 13:35:44;;;;;;;1.97;0.80;;;;;;;;;;6192462;23;20391;-55
2022/03/14 13:38:11;;;;;;;1.63;1.00;;;;;;;;;;6194974;23;20713;-55
2022/03/14 13:40:44;;;;;;;1.40;0.70;;;;;;;;;;6196097;23;20395;-55
2022/03/14 13:43:10;;;;;;;4.00;1.30;;;;;;;;;;6192794;23;20368;-55
2022/03/14 13:45:36;;;;;;;2.40;1.00;;;;;;;;;;6193435;23;20438;-57
2022/03/14 13:48:02;;;;;;;4.53;1.10;;;;;;;;;;6195087;23;20430;-55
2022/03/14 13:50:29;;;;;;;1.93;1.03;;;;;;;;;;6194606;23;20867;-55
2022/03/14 13:52:55;;;;;;;1.77;1.10;;;;;;;;;;6192332;23;20379;-55
2022/03/14 13:55:22;;;;;;;6.23;1.20;;;;;;;;;;6194897;23;20372;-55
2022/03/14 13:57:48;;;;;;;2.07;1.00;;;;;;;;;;6195330;23;20375;-54
2022/03/14 14:00:14;;;;;;;3.13;0.90;;;;;;;;;;6193210;23;20435;-54
2022/03/14 14:02:40;;;;;;;1.90;0.80;;;;;;;;;;6194137;23;20393;-55
2022/03/14 14:05:10;;;;;;;1.67;1.10;;;;;;;;;;6193568;23;20939;-55
2022/03/14 14:07:36;;;;;;;2.53;1.30;;;;;;;;;;6193413;23;20387;-55
2022/03/14 14:10:20;;;;;;;1.60;0.80;;;;;;;;;;6192136;23;20375;-55
2022/03/14 14:12:59;;;;;;;1.97;1.07;;;;;;;;;;6193985;23;20384;-55
2022/03/14 14:15:39;;;;;;;1.97;1.10;;;;;;;;;;6196475;23;20872;-55
2022/03/14 14:18:13;;;;;;;2.37;0.90;;;;;;;;;;6195850;23;20482;-55
2022/03/14 14:20:39;;;;;;;3.20;1.20;;;;;;;;;;6194976;23;20419;-54
2022/03/14 14:23:07;;;;;;;4.00;1.40;;;;;;;;;;6193255;23;20371;-55
2022/03/14 14:25:35;;;;;;;1.37;0.90;;;;;;;;;;6192633;23;21104;-54
2022/03/14 14:28:11;;;;;;;1.93;0.80;;;;;;;;;;6191829;23;20807;-56
2022/03/14 14:30:38;;;;;;;1.60;0.83;;;;;;;;;;6191944;23;20445;-57
2022/03/14 14:33:08;;;;;;;4.30;1.10;;;;;;;;;;6194482;23;20403;-55
2022/03/14 14:35:35;;;;;;;2.30;1.10;;;;;;;;;;6194841;23;20376;-55
2022/03/14 14:38:01;;;;;;;3.27;0.80;;;;;;;;;;6193879;23;20831;-55